sensor_id;sensor_type;location;lat;lon;timestamp;P1;durP1;ratioP1;P2;durP2;ratioP2
70549;SDS011;58101;48.658;2.328;2024-01-30T00:01:43;12.43;;;5.65;;
70549;SDS011;58101;48.658;2.328;2024-01-30T00:04:09;12.27;;;5.40;;
70549;SDS011;58101;48.658;2.328;2024-01-30T00:06:34;14.27;;;5.63;;
70549;SDS011;58101;48.658;2.328;2024-01-30T00:09:00;12.20;;;5.30;;
70549;SDS011;58101;48.658;2.328;2024-01-30T00:11:26;13.35;;;5.95;;
70549;SDS011;58101;48.658;2.328;2024-01-30T00:13:52;12.90;;;5.15;;
70549;SDS011;58101;48.658;2.328;2024-01-30T00:16:21;14.95;;;5.60;;
70549;SDS011;58101;48.658;2.328;2024-01-30T00:18:50;13.57;;;5.60;;
70549;SDS011;58101;48.658;2.328;2024-01-30T00:21:17;12.77;;;5.35;;
70549;SDS011;58101;48.658;2.328;2024-01-30T00:23:43;11.77;;;5.30;;
70549;SDS011;58101;48.658;2.328;2024-01-30T00:26:08;14.13;;;5.43;;
70549;SDS011;58101;48.658;2.328;2024-01-30T00:28:35;11.15;;;4.93;;
70549;SDS011;58101;48.658;2.328;2024-01-30T00:31:01;14.23;;;5.10;;
70549;SDS011;58101;48.658;2.328;2024-01-30T00:33:27;11.73;;;5.20;;
70549;SDS011;58101;48.658;2.328;2024-01-30T00:35:52;13.20;;;5.47;;
70549;SDS011;58101;48.658;2.328;2024-01-30T00:38:18;12.90;;;5.30;;
70549;SDS011;58101;48.658;2.328;2024-01-30T00:40:43;12.00;;;5.40;;
70549;SDS011;58101;48.658;2.328;2024-01-30T00:43:09;12.95;;;4.80;;
70549;SDS011;58101;48.658;2.328;2024-01-30T00:45:35;12.02;;;5.15;;
70549;SDS011;58101;48.658;2.328;2024-01-30T00:48:00;13.30;;;5.20;;
70549;SDS011;58101;48.658;2.328;2024-01-30T00:50:26;12.25;;;5.22;;
70549;SDS011;58101;48.658;2.328;2024-01-30T00:52:51;14.68;;;5.47;;
70549;SDS011;58101;48.658;2.328;2024-01-30T00:55:17;11.98;;;5.30;;
70549;SDS011;58101;48.658;2.328;2024-01-30T00:57:43;13.02;;;5.00;;
70549;SDS011;58101;48.658;2.328;2024-01-30T01:00:15;12.38;;;4.80;;
70549;SDS011;58101;48.658;2.328;2024-01-30T01:02:42;12.75;;;4.90;;
70549;SDS011;58101;48.658;2.328;2024-01-30T01:05:08;12.98;;;4.72;;
70549;SDS011;58101;48.658;2.328;2024-01-30T01:07:36;14.50;;;5.38;;
70549;SDS011;58101;48.658;2.328;2024-01-30T01:10:02;15.85;;;6.25;;
70549;SDS011;58101;48.658;2.328;2024-01-30T01:12:28;13.73;;;5.88;;
70549;SDS011;58101;48.658;2.328;2024-01-30T01:14:54;15.63;;;6.60;;
70549;SDS011;58101;48.658;2.328;2024-01-30T01:17:20;15.07;;;6.28;;
70549;SDS011;58101;48.658;2.328;2024-01-30T01:19:45;14.80;;;5.80;;
70549;SDS011;58101;48.658;2.328;2024-01-30T01:22:11;15.63;;;5.70;;
70549;SDS011;58101;48.658;2.328;2024-01-30T01:24:36;13.88;;;5.70;;
70549;SDS011;58101;48.658;2.328;2024-01-30T01:27:02;14.77;;;5.80;;
70549;SDS011;58101;48.658;2.328;2024-01-30T01:29:28;14.35;;;5.15;;
70549;SDS011;58101;48.658;2.328;2024-01-30T01:31:57;12.95;;;5.07;;
70549;SDS011;58101;48.658;2.328;2024-01-30T01:34:23;11.25;;;4.90;;
70549;SDS011;58101;48.658;2.328;2024-01-30T01:36:49;12.18;;;4.90;;
70549;SDS011;58101;48.658;2.328;2024-01-30T01:39:15;13.38;;;4.40;;
70549;SDS011;58101;48.658;2.328;2024-01-30T01:41:41;12.93;;;4.90;;
70549;SDS011;58101;48.658;2.328;2024-01-30T01:44:07;12.55;;;4.68;;
70549;SDS011;58101;48.658;2.328;2024-01-30T01:46:33;10.80;;;4.20;;
70549;SDS011;58101;48.658;2.328;2024-01-30T01:49:02;13.00;;;4.30;;
70549;SDS011;58101;48.658;2.328;2024-01-30T01:51:30;10.82;;;4.20;;
70549;SDS011;58101;48.658;2.328;2024-01-30T01:53:58;10.68;;;4.10;;
70549;SDS011;58101;48.658;2.328;2024-01-30T01:56:27;12.48;;;4.10;;
70549;SDS011;58101;48.658;2.328;2024-01-30T01:58:55;11.98;;;4.38;;
70549;SDS011;58101;48.658;2.328;2024-01-30T02:01:25;11.93;;;4.07;;
70549;SDS011;58101;48.658;2.328;2024-01-30T02:03:53;10.18;;;3.80;;
70549;SDS011;58101;48.658;2.328;2024-01-30T02:08:46;9.75;;;3.58;;
70549;SDS011;58101;48.658;2.328;2024-01-30T02:11:12;10.18;;;3.55;;
70549;SDS011;58101;48.658;2.328;2024-01-30T02:13:38;9.50;;;3.65;;
70549;SDS011;58101;48.658;2.328;2024-01-30T02:16:03;9.80;;;3.85;;
70549;SDS011;58101;48.658;2.328;2024-01-30T02:18:29;10.63;;;3.70;;
70549;SDS011;58101;48.658;2.328;2024-01-30T02:20:56;10.25;;;3.75;;
70549;SDS011;58101;48.658;2.328;2024-01-30T02:23:26;10.05;;;3.38;;
70549;SDS011;58101;48.658;2.328;2024-01-30T02:25:52;9.02;;;3.42;;
70549;SDS011;58101;48.658;2.328;2024-01-30T02:28:18;9.18;;;3.45;;
70549;SDS011;58101;48.658;2.328;2024-01-30T02:30:45;9.77;;;3.60;;
70549;SDS011;58101;48.658;2.328;2024-01-30T02:33:11;10.40;;;3.65;;
70549;SDS011;58101;48.658;2.328;2024-01-30T02:35:37;10.65;;;3.58;;
70549;SDS011;58101;48.658;2.328;2024-01-30T02:38:06;10.65;;;3.88;;
70549;SDS011;58101;48.658;2.328;2024-01-30T02:40:32;12.00;;;4.40;;
70549;SDS011;58101;48.658;2.328;2024-01-30T02:42:58;11.07;;;3.72;;
70549;SDS011;58101;48.658;2.328;2024-01-30T02:45:24;9.15;;;3.38;;
70549;SDS011;58101;48.658;2.328;2024-01-30T02:47:50;9.73;;;4.03;;
70549;SDS011;58101;48.658;2.328;2024-01-30T02:50:16;9.10;;;3.30;;
70549;SDS011;58101;48.658;2.328;2024-01-30T02:52:41;11.05;;;3.80;;
70549;SDS011;58101;48.658;2.328;2024-01-30T02:55:09;10.05;;;3.58;;
70549;SDS011;58101;48.658;2.328;2024-01-30T02:57:34;10.75;;;3.90;;
70549;SDS011;58101;48.658;2.328;2024-01-30T03:00:00;11.35;;;3.97;;
70549;SDS011;58101;48.658;2.328;2024-01-30T03:02:26;11.05;;;3.65;;
70549;SDS011;58101;48.658;2.328;2024-01-30T03:04:52;9.93;;;3.58;;
70549;SDS011;58101;48.658;2.328;2024-01-30T03:07:17;10.15;;;3.60;;
70549;SDS011;58101;48.658;2.328;2024-01-30T03:09:43;13.40;;;4.18;;
70549;SDS011;58101;48.658;2.328;2024-01-30T03:12:09;9.73;;;3.80;;
70549;SDS011;58101;48.658;2.328;2024-01-30T03:14:35;9.35;;;3.50;;
70549;SDS011;58101;48.658;2.328;2024-01-30T03:17:00;9.35;;;3.42;;
70549;SDS011;58101;48.658;2.328;2024-01-30T03:19:26;11.40;;;3.65;;
70549;SDS011;58101;48.658;2.328;2024-01-30T03:21:52;12.60;;;4.00;;
70549;SDS011;58101;48.658;2.328;2024-01-30T03:24:17;11.93;;;3.67;;
70549;SDS011;58101;48.658;2.328;2024-01-30T03:26:43;13.30;;;4.25;;
70549;SDS011;58101;48.658;2.328;2024-01-30T03:29:09;11.48;;;3.53;;
70549;SDS011;58101;48.658;2.328;2024-01-30T03:31:34;10.38;;;3.60;;
70549;SDS011;58101;48.658;2.328;2024-01-30T03:34:00;10.77;;;3.65;;
70549;SDS011;58101;48.658;2.328;2024-01-30T03:36:26;8.68;;;3.40;;
70549;SDS011;58101;48.658;2.328;2024-01-30T03:38:52;14.30;;;4.05;;
70549;SDS011;58101;48.658;2.328;2024-01-30T03:41:18;11.30;;;3.33;;
70549;SDS011;58101;48.658;2.328;2024-01-30T03:43:43;13.70;;;3.80;;
70549;SDS011;58101;48.658;2.328;2024-01-30T03:46:09;9.57;;;3.60;;
70549;SDS011;58101;48.658;2.328;2024-01-30T03:48:37;9.55;;;3.40;;
70549;SDS011;58101;48.658;2.328;2024-01-30T03:51:02;9.55;;;3.70;;
70549;SDS011;58101;48.658;2.328;2024-01-30T03:53:29;8.98;;;3.70;;
70549;SDS011;58101;48.658;2.328;2024-01-30T03:55:55;9.35;;;3.35;;
70549;SDS011;58101;48.658;2.328;2024-01-30T03:58:21;11.40;;;3.65;;
70549;SDS011;58101;48.658;2.328;2024-01-30T04:00:47;12.13;;;3.92;;
70549;SDS011;58101;48.658;2.328;2024-01-30T04:03:14;10.85;;;4.15;;
70549;SDS011;58101;48.658;2.328;2024-01-30T04:05:40;11.00;;;4.18;;
70549;SDS011;58101;48.658;2.328;2024-01-30T04:08:06;10.77;;;4.47;;
70549;SDS011;58101;48.658;2.328;2024-01-30T04:10:32;11.45;;;4.00;;
70549;SDS011;58101;48.658;2.328;2024-01-30T04:13:01;13.15;;;3.97;;
70549;SDS011;58101;48.658;2.328;2024-01-30T04:15:27;12.48;;;4.18;;
70549;SDS011;58101;48.658;2.328;2024-01-30T04:17:56;11.43;;;4.10;;
70549;SDS011;58101;48.658;2.328;2024-01-30T04:20:23;9.73;;;3.85;;
70549;SDS011;58101;48.658;2.328;2024-01-30T04:22:49;14.32;;;3.75;;
70549;SDS011;58101;48.658;2.328;2024-01-30T04:25:15;11.10;;;3.95;;
70549;SDS011;58101;48.658;2.328;2024-01-30T04:27:40;12.30;;;3.90;;
70549;SDS011;58101;48.658;2.328;2024-01-30T04:30:06;10.15;;;3.72;;
70549;SDS011;58101;48.658;2.328;2024-01-30T04:32:32;12.20;;;4.35;;
70549;SDS011;58101;48.658;2.328;2024-01-30T04:34:58;10.95;;;4.05;;
70549;SDS011;58101;48.658;2.328;2024-01-30T04:37:23;10.77;;;3.85;;
70549;SDS011;58101;48.658;2.328;2024-01-30T04:39:50;10.85;;;4.13;;
70549;SDS011;58101;48.658;2.328;2024-01-30T04:42:16;10.98;;;4.00;;
70549;SDS011;58101;48.658;2.328;2024-01-30T04:44:42;9.02;;;3.58;;
70549;SDS011;58101;48.658;2.328;2024-01-30T04:47:08;11.38;;;4.07;;
70549;SDS011;58101;48.658;2.328;2024-01-30T04:49:36;12.57;;;3.97;;
70549;SDS011;58101;48.658;2.328;2024-01-30T04:52:01;11.55;;;3.88;;
70549;SDS011;58101;48.658;2.328;2024-01-30T04:54:27;10.82;;;3.88;;
70549;SDS011;58101;48.658;2.328;2024-01-30T04:56:53;9.63;;;3.88;;
70549;SDS011;58101;48.658;2.328;2024-01-30T04:59:18;10.30;;;3.70;;
70549;SDS011;58101;48.658;2.328;2024-01-30T05:01:44;12.75;;;3.63;;
70549;SDS011;58101;48.658;2.328;2024-01-30T05:04:09;13.13;;;3.42;;
70549;SDS011;58101;48.658;2.328;2024-01-30T05:06:36;11.10;;;3.38;;
70549;SDS011;58101;48.658;2.328;2024-01-30T05:09:01;10.60;;;3.58;;
70549;SDS011;58101;48.658;2.328;2024-01-30T05:11:29;10.45;;;3.60;;
70549;SDS011;58101;48.658;2.328;2024-01-30T05:13:55;10.75;;;3.65;;
70549;SDS011;58101;48.658;2.328;2024-01-30T05:16:20;9.43;;;3.55;;
70549;SDS011;58101;48.658;2.328;2024-01-30T05:18:46;15.30;;;3.88;;
70549;SDS011;58101;48.658;2.328;2024-01-30T05:21:12;11.20;;;3.67;;
70549;SDS011;58101;48.658;2.328;2024-01-30T05:23:37;10.95;;;3.50;;
70549;SDS011;58101;48.658;2.328;2024-01-30T05:26:03;10.27;;;3.40;;
70549;SDS011;58101;48.658;2.328;2024-01-30T05:28:32;9.52;;;3.60;;
70549;SDS011;58101;48.658;2.328;2024-01-30T05:30:58;9.52;;;3.65;;
70549;SDS011;58101;48.658;2.328;2024-01-30T05:33:24;10.75;;;3.60;;
70549;SDS011;58101;48.658;2.328;2024-01-30T05:35:49;10.00;;;3.30;;
70549;SDS011;58101;48.658;2.328;2024-01-30T05:38:15;9.70;;;3.55;;
70549;SDS011;58101;48.658;2.328;2024-01-30T05:40:41;9.18;;;3.38;;
70549;SDS011;58101;48.658;2.328;2024-01-30T05:43:07;10.95;;;4.10;;
70549;SDS011;58101;48.658;2.328;2024-01-30T05:45:33;11.10;;;4.00;;
70549;SDS011;58101;48.658;2.328;2024-01-30T05:48:01;9.43;;;3.58;;
70549;SDS011;58101;48.658;2.328;2024-01-30T05:50:27;12.05;;;4.07;;
70549;SDS011;58101;48.658;2.328;2024-01-30T05:52:53;11.20;;;3.60;;
70549;SDS011;58101;48.658;2.328;2024-01-30T05:55:18;11.43;;;3.70;;
70549;SDS011;58101;48.658;2.328;2024-01-30T05:57:44;10.57;;;3.30;;
70549;SDS011;58101;48.658;2.328;2024-01-30T06:00:10;13.35;;;3.78;;
70549;SDS011;58101;48.658;2.328;2024-01-30T06:02:36;10.60;;;4.00;;
70549;SDS011;58101;48.658;2.328;2024-01-30T06:05:01;12.05;;;4.10;;
70549;SDS011;58101;48.658;2.328;2024-01-30T06:07:27;11.85;;;3.72;;
70549;SDS011;58101;48.658;2.328;2024-01-30T06:09:53;11.43;;;3.78;;
70549;SDS011;58101;48.658;2.328;2024-01-30T06:12:18;10.00;;;3.88;;
70549;SDS011;58101;48.658;2.328;2024-01-30T06:14:44;13.00;;;3.88;;
70549;SDS011;58101;48.658;2.328;2024-01-30T06:17:10;9.13;;;3.90;;
70549;SDS011;58101;48.658;2.328;2024-01-30T06:19:37;12.85;;;4.50;;
70549;SDS011;58101;48.658;2.328;2024-01-30T06:22:05;11.07;;;3.83;;
70549;SDS011;58101;48.658;2.328;2024-01-30T06:24:31;17.88;;;7.82;;
70549;SDS011;58101;48.658;2.328;2024-01-30T06:26:56;11.85;;;4.43;;
70549;SDS011;58101;48.658;2.328;2024-01-30T06:29:22;13.93;;;4.18;;
70549;SDS011;58101;48.658;2.328;2024-01-30T06:31:49;11.52;;;3.90;;
70549;SDS011;58101;48.658;2.328;2024-01-30T06:34:15;13.10;;;3.95;;
70549;SDS011;58101;48.658;2.328;2024-01-30T06:36:41;11.13;;;3.95;;
70549;SDS011;58101;48.658;2.328;2024-01-30T06:39:07;10.75;;;3.65;;
70549;SDS011;58101;48.658;2.328;2024-01-30T06:41:33;10.57;;;4.10;;
70549;SDS011;58101;48.658;2.328;2024-01-30T06:43:58;12.48;;;3.97;;
70549;SDS011;58101;48.658;2.328;2024-01-30T06:46:24;11.25;;;4.40;;
70549;SDS011;58101;48.658;2.328;2024-01-30T06:48:50;11.02;;;3.70;;
70549;SDS011;58101;48.658;2.328;2024-01-30T06:51:15;10.32;;;3.70;;
70549;SDS011;58101;48.658;2.328;2024-01-30T06:53:41;10.65;;;4.57;;
70549;SDS011;58101;48.658;2.328;2024-01-30T06:56:07;13.80;;;3.80;;
70549;SDS011;58101;48.658;2.328;2024-01-30T06:58:36;11.55;;;4.15;;
70549;SDS011;58101;48.658;2.328;2024-01-30T07:01:01;10.18;;;3.58;;
70549;SDS011;58101;48.658;2.328;2024-01-30T07:03:27;10.95;;;3.55;;
70549;SDS011;58101;48.658;2.328;2024-01-30T07:05:53;10.25;;;4.05;;
70549;SDS011;58101;48.658;2.328;2024-01-30T07:08:18;14.68;;;3.92;;
70549;SDS011;58101;48.658;2.328;2024-01-30T07:10:44;11.27;;;3.80;;
70549;SDS011;58101;48.658;2.328;2024-01-30T07:13:10;10.73;;;4.13;;
70549;SDS011;58101;48.658;2.328;2024-01-30T07:15:36;9.30;;;3.67;;
70549;SDS011;58101;48.658;2.328;2024-01-30T07:18:02;10.65;;;3.78;;
70549;SDS011;58101;48.658;2.328;2024-01-30T07:20:31;11.25;;;4.05;;
70549;SDS011;58101;48.658;2.328;2024-01-30T07:23:00;11.07;;;3.80;;
70549;SDS011;58101;48.658;2.328;2024-01-30T07:25:26;10.15;;;4.05;;
70549;SDS011;58101;48.658;2.328;2024-01-30T07:27:55;14.45;;;4.80;;
70549;SDS011;58101;48.658;2.328;2024-01-30T07:30:21;14.23;;;4.40;;
70549;SDS011;58101;48.658;2.328;2024-01-30T07:35:13;11.95;;;4.35;;
70549;SDS011;58101;48.658;2.328;2024-01-30T07:37:39;10.30;;;3.83;;
70549;SDS011;58101;48.658;2.328;2024-01-30T07:40:05;15.20;;;4.80;;
70549;SDS011;58101;48.658;2.328;2024-01-30T07:42:31;13.23;;;4.13;;
70549;SDS011;58101;48.658;2.328;2024-01-30T07:44:58;11.60;;;3.85;;
70549;SDS011;58101;48.658;2.328;2024-01-30T07:47:25;10.45;;;4.05;;
70549;SDS011;58101;48.658;2.328;2024-01-30T07:49:50;12.57;;;3.85;;
70549;SDS011;58101;48.658;2.328;2024-01-30T07:52:16;11.13;;;3.95;;
70549;SDS011;58101;48.658;2.328;2024-01-30T07:54:48;10.90;;;4.00;;
70549;SDS011;58101;48.658;2.328;2024-01-30T07:57:14;10.63;;;4.35;;
70549;SDS011;58101;48.658;2.328;2024-01-30T07:59:42;10.02;;;4.30;;
70549;SDS011;58101;48.658;2.328;2024-01-30T08:02:09;13.40;;;3.90;;
70549;SDS011;58101;48.658;2.328;2024-01-30T08:04:35;11.20;;;3.97;;
70549;SDS011;58101;48.658;2.328;2024-01-30T08:07:01;10.73;;;3.95;;
70549;SDS011;58101;48.658;2.328;2024-01-30T08:09:29;11.38;;;3.83;;
70549;SDS011;58101;48.658;2.328;2024-01-30T08:11:55;9.93;;;3.75;;
70549;SDS011;58101;48.658;2.328;2024-01-30T08:14:20;10.32;;;3.80;;
70549;SDS011;58101;48.658;2.328;2024-01-30T08:16:46;9.80;;;3.72;;
70549;SDS011;58101;48.658;2.328;2024-01-30T08:19:12;10.90;;;3.95;;
70549;SDS011;58101;48.658;2.328;2024-01-30T08:21:37;12.82;;;4.07;;
70549;SDS011;58101;48.658;2.328;2024-01-30T08:24:03;8.88;;;3.75;;
70549;SDS011;58101;48.658;2.328;2024-01-30T08:26:32;9.38;;;3.85;;
70549;SDS011;58101;48.658;2.328;2024-01-30T08:28:58;10.30;;;4.18;;
70549;SDS011;58101;48.658;2.328;2024-01-30T08:31:24;18.67;;;9.07;;
70549;SDS011;58101;48.658;2.328;2024-01-30T08:33:49;13.30;;;4.47;;
70549;SDS011;58101;48.658;2.328;2024-01-30T08:36:15;11.13;;;4.90;;
70549;SDS011;58101;48.658;2.328;2024-01-30T08:38:41;13.45;;;4.47;;
70549;SDS011;58101;48.658;2.328;2024-01-30T08:41:07;12.88;;;4.82;;
70549;SDS011;58101;48.658;2.328;2024-01-30T08:43:36;11.27;;;4.20;;
70549;SDS011;58101;48.658;2.328;2024-01-30T08:46:02;13.55;;;4.32;;
70549;SDS011;58101;48.658;2.328;2024-01-30T08:48:28;11.23;;;4.70;;
70549;SDS011;58101;48.658;2.328;2024-01-30T08:50:54;13.30;;;4.68;;
70549;SDS011;58101;48.658;2.328;2024-01-30T08:53:20;11.63;;;4.47;;
70549;SDS011;58101;48.658;2.328;2024-01-30T08:55:45;14.15;;;5.00;;
70549;SDS011;58101;48.658;2.328;2024-01-30T08:58:11;16.60;;;7.38;;
70549;SDS011;58101;48.658;2.328;2024-01-30T09:00:37;19.90;;;7.78;;
70549;SDS011;58101;48.658;2.328;2024-01-30T09:03:05;12.15;;;4.45;;
70549;SDS011;58101;48.658;2.328;2024-01-30T09:05:31;12.73;;;4.30;;
70549;SDS011;58101;48.658;2.328;2024-01-30T09:08:00;16.02;;;4.55;;
70549;SDS011;58101;48.658;2.328;2024-01-30T09:10:25;15.82;;;5.00;;
70549;SDS011;58101;48.658;2.328;2024-01-30T09:12:51;18.25;;;4.82;;
70549;SDS011;58101;48.658;2.328;2024-01-30T09:15:17;13.90;;;4.90;;
70549;SDS011;58101;48.658;2.328;2024-01-30T09:17:44;12.63;;;5.05;;
70549;SDS011;58101;48.658;2.328;2024-01-30T09:20:09;13.52;;;5.68;;
70549;SDS011;58101;48.658;2.328;2024-01-30T09:22:35;16.70;;;5.05;;
70549;SDS011;58101;48.658;2.328;2024-01-30T09:25:01;17.88;;;5.32;;
70549;SDS011;58101;48.658;2.328;2024-01-30T09:27:27;16.52;;;5.05;;
70549;SDS011;58101;48.658;2.328;2024-01-30T09:29:52;20.50;;;6.13;;
70549;SDS011;58101;48.658;2.328;2024-01-30T09:32:18;17.27;;;6.00;;
70549;SDS011;58101;48.658;2.328;2024-01-30T09:34:44;15.07;;;5.25;;
70549;SDS011;58101;48.658;2.328;2024-01-30T09:37:09;17.58;;;7.80;;
70549;SDS011;58101;48.658;2.328;2024-01-30T09:39:35;16.40;;;5.93;;
70549;SDS011;58101;48.658;2.328;2024-01-30T09:42:12;17.20;;;5.40;;
70549;SDS011;58101;48.658;2.328;2024-01-30T09:44:51;17.63;;;5.57;;
70549;SDS011;58101;48.658;2.328;2024-01-30T09:47:18;13.88;;;5.00;;
70549;SDS011;58101;48.658;2.328;2024-01-30T09:49:44;15.13;;;5.10;;
70549;SDS011;58101;48.658;2.328;2024-01-30T09:52:10;16.35;;;5.45;;
70549;SDS011;58101;48.658;2.328;2024-01-30T09:54:36;22.23;;;5.35;;
70549;SDS011;58101;48.658;2.328;2024-01-30T09:57:03;18.45;;;5.20;;
70549;SDS011;58101;48.658;2.328;2024-01-30T09:59:32;16.27;;;5.30;;
70549;SDS011;58101;48.658;2.328;2024-01-30T10:01:58;17.88;;;6.40;;
70549;SDS011;58101;48.658;2.328;2024-01-30T10:04:24;15.68;;;5.32;;
70549;SDS011;58101;48.658;2.328;2024-01-30T10:06:49;15.00;;;5.32;;
70549;SDS011;58101;48.658;2.328;2024-01-30T10:09:16;18.90;;;5.40;;
70549;SDS011;58101;48.658;2.328;2024-01-30T10:11:41;16.17;;;5.03;;
70549;SDS011;58101;48.658;2.328;2024-01-30T10:14:07;15.88;;;5.43;;
70549;SDS011;58101;48.658;2.328;2024-01-30T10:16:34;19.15;;;5.70;;
70549;SDS011;58101;48.658;2.328;2024-01-30T10:19:00;13.93;;;5.03;;
70549;SDS011;58101;48.658;2.328;2024-01-30T10:21:25;15.18;;;5.63;;
70549;SDS011;58101;48.658;2.328;2024-01-30T10:23:51;17.27;;;5.07;;
70549;SDS011;58101;48.658;2.328;2024-01-30T10:26:17;14.00;;;5.35;;
70549;SDS011;58101;48.658;2.328;2024-01-30T10:28:43;17.02;;;6.00;;
70549;SDS011;58101;48.658;2.328;2024-01-30T10:31:08;15.40;;;5.15;;
70549;SDS011;58101;48.658;2.328;2024-01-30T10:33:34;17.70;;;5.75;;
70549;SDS011;58101;48.658;2.328;2024-01-30T10:36:00;14.85;;;5.10;;
70549;SDS011;58101;48.658;2.328;2024-01-30T10:38:30;16.33;;;5.63;;
70549;SDS011;58101;48.658;2.328;2024-01-30T10:41:00;19.38;;;5.88;;
70549;SDS011;58101;48.658;2.328;2024-01-30T10:43:30;16.23;;;5.53;;
70549;SDS011;58101;48.658;2.328;2024-01-30T10:45:59;21.10;;;6.15;;
70549;SDS011;58101;48.658;2.328;2024-01-30T10:48:32;30.83;;;6.03;;
70549;SDS011;58101;48.658;2.328;2024-01-30T10:51:01;18.92;;;5.22;;
70549;SDS011;58101;48.658;2.328;2024-01-30T10:53:31;18.65;;;5.60;;
70549;SDS011;58101;48.658;2.328;2024-01-30T10:55:58;16.35;;;5.45;;
70549;SDS011;58101;48.658;2.328;2024-01-30T10:58:26;18.27;;;5.35;;
70549;SDS011;58101;48.658;2.328;2024-01-30T11:00:52;18.58;;;5.53;;
70549;SDS011;58101;48.658;2.328;2024-01-30T11:03:18;18.05;;;5.40;;
70549;SDS011;58101;48.658;2.328;2024-01-30T11:05:48;16.60;;;5.85;;
70549;SDS011;58101;48.658;2.328;2024-01-30T11:08:15;15.00;;;5.60;;
70549;SDS011;58101;48.658;2.328;2024-01-30T11:10:49;15.80;;;5.28;;
70549;SDS011;58101;48.658;2.328;2024-01-30T11:13:15;16.70;;;4.80;;
70549;SDS011;58101;48.658;2.328;2024-01-30T11:15:41;20.98;;;5.22;;
70549;SDS011;58101;48.658;2.328;2024-01-30T11:18:06;15.20;;;5.30;;
70549;SDS011;58101;48.658;2.328;2024-01-30T11:20:32;15.32;;;5.32;;
70549;SDS011;58101;48.658;2.328;2024-01-30T11:23:00;18.40;;;5.63;;
70549;SDS011;58101;48.658;2.328;2024-01-30T11:25:31;14.45;;;5.05;;
70549;SDS011;58101;48.658;2.328;2024-01-30T11:27:57;13.52;;;5.18;;
70549;SDS011;58101;48.658;2.328;2024-01-30T11:30:23;15.50;;;5.22;;
70549;SDS011;58101;48.658;2.328;2024-01-30T11:35:41;17.65;;;5.30;;
70549;SDS011;58101;48.658;2.328;2024-01-30T11:38:08;16.42;;;5.07;;
70549;SDS011;58101;48.658;2.328;2024-01-30T11:40:35;15.20;;;5.57;;
70549;SDS011;58101;48.658;2.328;2024-01-30T11:43:03;13.73;;;5.40;;
70549;SDS011;58101;48.658;2.328;2024-01-30T11:45:33;15.23;;;5.20;;
70549;SDS011;58101;48.658;2.328;2024-01-30T11:48:02;16.15;;;5.07;;
70549;SDS011;58101;48.658;2.328;2024-01-30T11:52:55;15.18;;;4.93;;
70549;SDS011;58101;48.658;2.328;2024-01-30T11:55:21;14.05;;;4.45;;
70549;SDS011;58101;48.658;2.328;2024-01-30T11:57:48;14.07;;;4.68;;
70549;SDS011;58101;48.658;2.328;2024-01-30T12:00:14;18.00;;;4.95;;
70549;SDS011;58101;48.658;2.328;2024-01-30T12:02:41;16.98;;;4.68;;
70549;SDS011;58101;48.658;2.328;2024-01-30T12:05:07;13.20;;;4.97;;
70549;SDS011;58101;48.658;2.328;2024-01-30T12:07:34;13.30;;;4.63;;
70549;SDS011;58101;48.658;2.328;2024-01-30T12:10:00;12.90;;;4.75;;
70549;SDS011;58101;48.658;2.328;2024-01-30T12:12:26;13.95;;;4.28;;
70549;SDS011;58101;48.658;2.328;2024-01-30T12:14:53;13.20;;;4.15;;
70549;SDS011;58101;48.658;2.328;2024-01-30T12:17:29;12.90;;;4.30;;
70549;SDS011;58101;48.658;2.328;2024-01-30T12:20:05;14.20;;;4.25;;
70549;SDS011;58101;48.658;2.328;2024-01-30T12:25:12;11.23;;;4.00;;
70549;SDS011;58101;48.658;2.328;2024-01-30T12:27:39;11.50;;;4.20;;
70549;SDS011;58101;48.658;2.328;2024-01-30T12:30:11;10.70;;;3.63;;
70549;SDS011;58101;48.658;2.328;2024-01-30T12:32:39;10.82;;;3.50;;
70549;SDS011;58101;48.658;2.328;2024-01-30T12:35:07;9.65;;;3.50;;
70549;SDS011;58101;48.658;2.328;2024-01-30T12:37:37;13.55;;;4.10;;
70549;SDS011;58101;48.658;2.328;2024-01-30T12:40:10;11.68;;;3.70;;
70549;SDS011;58101;48.658;2.328;2024-01-30T12:42:38;12.00;;;3.55;;
70549;SDS011;58101;48.658;2.328;2024-01-30T12:45:04;12.57;;;3.70;;
70549;SDS011;58101;48.658;2.328;2024-01-30T12:47:30;13.55;;;3.58;;
70549;SDS011;58101;48.658;2.328;2024-01-30T12:49:55;11.63;;;3.75;;
70549;SDS011;58101;48.658;2.328;2024-01-30T12:52:21;10.27;;;3.60;;
70549;SDS011;58101;48.658;2.328;2024-01-30T12:54:48;9.88;;;3.28;;
70549;SDS011;58101;48.658;2.328;2024-01-30T12:57:14;11.10;;;3.28;;
70549;SDS011;58101;48.658;2.328;2024-01-30T12:59:40;12.35;;;3.13;;
70549;SDS011;58101;48.658;2.328;2024-01-30T13:02:05;12.45;;;3.75;;
70549;SDS011;58101;48.658;2.328;2024-01-30T13:04:32;12.45;;;2.47;;
70549;SDS011;58101;48.658;2.328;2024-01-30T13:06:58;8.75;;;2.10;;
70549;SDS011;58101;48.658;2.328;2024-01-30T13:09:25;9.02;;;2.10;;
70549;SDS011;58101;48.658;2.328;2024-01-30T13:11:51;10.05;;;2.20;;
70549;SDS011;58101;48.658;2.328;2024-01-30T13:14:17;11.43;;;2.70;;
70549;SDS011;58101;48.658;2.328;2024-01-30T13:16:43;15.32;;;2.97;;
70549;SDS011;58101;48.658;2.328;2024-01-30T13:19:08;13.90;;;3.20;;
70549;SDS011;58101;48.658;2.328;2024-01-30T13:21:34;10.52;;;2.88;;
70549;SDS011;58101;48.658;2.328;2024-01-30T13:23:59;15.55;;;3.22;;
70549;SDS011;58101;48.658;2.328;2024-01-30T13:26:25;8.43;;;2.53;;
70549;SDS011;58101;48.658;2.328;2024-01-30T13:28:51;10.45;;;2.60;;
70549;SDS011;58101;48.658;2.328;2024-01-30T13:31:16;8.40;;;1.85;;
70549;SDS011;58101;48.658;2.328;2024-01-30T13:33:42;12.05;;;2.65;;
70549;SDS011;58101;48.658;2.328;2024-01-30T13:36:09;10.32;;;2.50;;
70549;SDS011;58101;48.658;2.328;2024-01-30T13:38:36;11.50;;;2.60;;
70549;SDS011;58101;48.658;2.328;2024-01-30T13:41:02;9.77;;;2.42;;
70549;SDS011;58101;48.658;2.328;2024-01-30T13:43:28;8.15;;;2.30;;
70549;SDS011;58101;48.658;2.328;2024-01-30T13:45:54;10.85;;;2.53;;
70549;SDS011;58101;48.658;2.328;2024-01-30T13:48:20;10.30;;;2.20;;
70549;SDS011;58101;48.658;2.328;2024-01-30T13:50:45;10.27;;;1.80;;
70549;SDS011;58101;48.658;2.328;2024-01-30T13:53:11;8.45;;;2.35;;
70549;SDS011;58101;48.658;2.328;2024-01-30T13:55:37;8.80;;;2.10;;
70549;SDS011;58101;48.658;2.328;2024-01-30T13:58:04;8.73;;;2.40;;
70549;SDS011;58101;48.658;2.328;2024-01-30T14:00:30;8.93;;;2.35;;
70549;SDS011;58101;48.658;2.328;2024-01-30T14:02:56;9.30;;;2.60;;
70549;SDS011;58101;48.658;2.328;2024-01-30T14:05:23;8.40;;;2.17;;
70549;SDS011;58101;48.658;2.328;2024-01-30T14:07:49;8.73;;;2.00;;
70549;SDS011;58101;48.658;2.328;2024-01-30T14:10:16;9.35;;;2.05;;
70549;SDS011;58101;48.658;2.328;2024-01-30T14:12:44;8.63;;;2.33;;
70549;SDS011;58101;48.658;2.328;2024-01-30T14:15:12;7.85;;;2.20;;
70549;SDS011;58101;48.658;2.328;2024-01-30T14:17:42;9.07;;;2.40;;
70549;SDS011;58101;48.658;2.328;2024-01-30T14:20:08;5.75;;;1.75;;
70549;SDS011;58101;48.658;2.328;2024-01-30T14:22:37;6.88;;;1.92;;
70549;SDS011;58101;48.658;2.328;2024-01-30T14:25:03;11.40;;;2.38;;
70549;SDS011;58101;48.658;2.328;2024-01-30T14:27:32;8.38;;;1.83;;
70549;SDS011;58101;48.658;2.328;2024-01-30T14:29:58;8.52;;;2.08;;
70549;SDS011;58101;48.658;2.328;2024-01-30T14:32:24;10.45;;;2.40;;
70549;SDS011;58101;48.658;2.328;2024-01-30T14:34:50;9.82;;;2.22;;
70549;SDS011;58101;48.658;2.328;2024-01-30T14:37:17;9.93;;;2.72;;
70549;SDS011;58101;48.658;2.328;2024-01-30T14:39:43;9.00;;;2.60;;
70549;SDS011;58101;48.658;2.328;2024-01-30T14:42:08;9.15;;;2.50;;
70549;SDS011;58101;48.658;2.328;2024-01-30T14:44:34;9.23;;;2.65;;